ソチ の空港の天気 - METARとTAF

ソチ空港 ( URSS / AER ) - ロシア ソチ
飛行場実況気象(Metar)
観測時間10/23 16:00 MSK (10/23 13:00 UTC)
風向・風速南南東 4m/s
視程10km以上
天気現象
なし
気温19℃
湿度64%
気圧1014hPa
METARURSS 231300Z 15004MPS 9999 NSC 19/12 Q1014 WS ALL RWY R06/090070 R02/090070 NOSIG RMK R02/14004G07MPS QFE759
過去の天気等 Google飛行場航空写真 Wunderground天気予報

過去48時間のMETAR

飛行場予報(TAF)
発表時間: 10/23 13:56 MSK (10/23 10:56 UTC)
予報対象時間: 23日15時 MSK ~ 24日15時 MSK
風向・風速南南東 6m/s 瞬間風速 11m/s
視程10km以上
全天の4割程度の積乱雲 雲底高度 910m
全天の4割程度の雲 雲底高度 3,050m
23日18時 MSK ~ 23日19時 MSK に徐々に
風向・風速北東 7m/s
全天の4割程度の雲 雲底高度 3,050m
24日0時 MSK ~ 24日11時 MSK に一時的に
風向・風速北北東 7m/s 瞬間風速 12m/s
TAF URSS 231056Z 2312/2412 15006G11MPS 9999 SCT030CB SCT100
BECMG 2315/2316 05007MPS SCT100
TEMPO 2321/2408 03007G12MPS